Terminal Aerodrome Forecast
Issued by NWS Lake Charles, LA

Home | Current Version | Previous Version | Text Only | Print | Product List | Glossary On
Versions: 1 2 3 4 5 6 7 8 9 10 11 12 13 14 15
000
FTUS44 KLCH 032341
TAFBPT
TAF
KBPT 032341Z 0400/0424 19010KT P6SM FEW035
     FM040400 19004KT P6SM SCT021 BKN050 OVC250
     FM040900 21003KT P6SM BKN020 BKN220
     FM041600 20008KT P6SM VCSH BKN035 BKN230
     FM041900 19008KT P6SM VCTS BKN035CB BKN220=

USA.gov is the U.S. government's official web portal to all federal, state and local government web resources and services.